Ferndale, CA

6:46 AM PDT on August 21, 2014 (GMT -0700)
Arcata | Change Station
CLOSE
Current Station
Airport
Location: Arcata,
Elevation: 217 ft
Nearby Weather Stations

Elev 217 ft 40.98 °N, 124.10 °W | Updated 53 minutes ago

Overcast
Overcast
56 °F
Feels Like 56 °F
N
0
Wind Variable Wind from North

Today
High -- | Low -- °F
--% Chance of Precip.
Yesterday
High -- | Low -- °F
Precip. -- in
6:33 AM 8:05 PM
Waning Crescent, 14% visible
Pressure 29.96 in
Visibility 10.0 miles
Clouds Overcast 500 ft
Dew Point 54 °F
Humidity 93%
Rainfall 0.00 in
Snow Depth Not available.
UV 0 out of 12
Pollen 6.90 out of 12
Air Quality Not available.
Flu Activity Not available.
METAR KACV 211253Z AUTO 00000KT 10SM OVC005 13/12 A2995 RMK AO2 SLP145 T01330122

More Conditions Fewer Conditions

Pressure 29.96 in
Visibility 10.0 miles
Clouds Overcast 500 ft
Dew Point 54 °F
Humidity 93%
Rainfall 0.00 in
Snow Depth Not available.
UV 0 out of 12
Pollen 6.90 out of 12
Air Quality Not available.
Flu Activity Not available.
METAR KACV 211253Z AUTO 00000KT 10SM OVC005 13/12 A2995 RMK AO2 SLP145 T01330122

More Conditions Fewer Conditions

10-Day Weather Forecast

Almanac

Astronomy

Aug. 21, 2014 Rise Set
Actual Time 6:33 AM PDT 8:05 PM PDT
Civil Twilight 6:04 AM PDT 8:34 PM PDT
Nautical Twilight 5:29 AM PDT 9:09 PM PDT
Astronomical Twilight 4:53 AM PDT 9:45 PM PDT
Moon 3:08 AM PDT 5:39 PM PDT
Length of Visible Light 14h 29m
Length of Day
13h 32m
Tomorrow will be 2m 27s shorter.
Waning Crescent, 14% of the Moon is Illuminated
Today
Waning Crescent
Aug 25
New
Sep 2
First Quarter
Sep 8
Full
Sep 15
Last Quarter

Today's Extremes

State Highs State Lows

Community

WunderPhotos

Upload Photos

1,745,918 photos uploaded!

WunderBlogs® & News

Nearby

Snow Depth

Station Depth Elevation
Adin Mountain 0 in 6200 ft
Cedar Pass 1 in 7100 ft
CSS Lab 1 in 6900 ft
Independence Creek 0 in 6500 ft
Independence Camp 0 in 7000 ft

Earthquake Activity

City Distance Mag. Time & Date
Crescent City, California 109 miles 2.8 2:15 PM PDT
2014-08-15
Minimum magnitude displayed is 2.5.

Coastal Water Temperatures

Place Temperature
Crescent City, CA 61.0 °F
North Spit, CA 62.1 °F
Port Orford, OR 48.9 °F

Nearby Weather Stations